createdAt,value
2024-02-29T00:03:55.960Z,30.8
2024-02-29T00:09:34.725Z,31.9
2024-02-29T00:15:13.816Z,30.7
2024-02-29T00:20:52.330Z,29.7
2024-02-29T00:26:16.072Z,28.8
2024-02-29T00:31:55.024Z,27.9
2024-02-29T00:37:39.905Z,27.1
2024-02-29T00:43:29.025Z,26.3
2024-02-29T00:49:08.351Z,25.1
2024-02-29T00:54:47.211Z,30.7
2024-02-29T01:00:26.056Z,31.8
2024-02-29T01:05:49.688Z,30.6
2024-02-29T01:11:28.402Z,29.6
2024-02-29T01:17:07.329Z,28.8
2024-02-29T01:22:34.146Z,27.9
2024-02-29T01:28:12.530Z,27.1
2024-02-29T01:34:03.363Z,26.3
2024-02-29T01:39:41.943Z,24.9
2024-02-29T01:45:05.150Z,30.7
2024-02-29T01:50:44.274Z,31.8
2024-02-29T01:56:24.853Z,30.7
2024-02-29T02:02:06.277Z,29.7
2024-02-29T02:07:45.580Z,28.8
2024-02-29T02:13:24.541Z,27.9
2024-02-29T02:18:32.190Z,27.1
2024-02-29T02:23:55.425Z,26.3
2024-02-29T02:29:18.732Z,25.7
2024-02-29T02:34:41.292Z,30.1
2024-02-29T02:40:04.463Z,31.8
2024-02-29T02:45:11.899Z,30.8
2024-02-29T02:50:35.222Z,29.9
2024-02-29T02:55:43.020Z,29
2024-02-29T03:01:21.880Z,28.1
2024-02-29T03:07:00.591Z,27.3
2024-02-29T03:12:39.719Z,26.6
2024-02-29T03:18:18.410Z,25.8
2024-02-29T03:23:57.311Z,29.9
2024-02-29T03:29:36.043Z,32.1
2024-02-29T03:35:14.701Z,30.8
2024-02-29T03:40:53.281Z,29.8
2024-02-29T03:46:32.138Z,25.9
2024-02-29T03:52:10.869Z,25.1
2024-02-29T03:57:49.367Z,24.6
2024-02-29T04:03:28.681Z,24.1
2024-02-29T04:09:07.318Z,28.2
2024-02-29T04:14:46.022Z,31.9
2024-02-29T04:20:25.018Z,30.9
2024-02-29T04:26:03.780Z,29.9
2024-02-29T04:31:42.245Z,26.9
2024-02-29T04:37:21.426Z,25.3
2024-02-29T04:42:59.965Z,24.7
2024-02-29T04:48:22.744Z,24.2
2024-02-29T04:54:01.661Z,25.5
2024-02-29T04:59:40.397Z,31.2
2024-02-29T05:05:19.525Z,31.4
2024-02-29T05:10:43.110Z,30.4
2024-02-29T05:16:23.853Z,29.4
2024-02-29T05:22:02.102Z,28.6
2024-02-29T05:27:41.055Z,27.7
2024-02-29T05:33:21.736Z,26.9
2024-02-29T05:39:00.691Z,26.1
2024-02-29T05:44:43.902Z,27.2
2024-02-29T05:50:07.438Z,31.5
2024-02-29T05:55:45.298Z,31.1
2024-02-29T06:01:24.419Z,30.1
2024-02-29T06:07:03.655Z,25.9
2024-02-29T06:12:43.987Z,25.1
2024-02-29T06:18:23.024Z,24.6
2024-02-29T06:24:01.940Z,24.1
2024-02-29T06:29:41.155Z,24
2024-02-29T06:35:20.560Z,30.9
2024-02-29T06:40:59.552Z,31.4
2024-02-29T06:46:23.342Z,30.3
2024-02-29T06:52:02.231Z,29.3
2024-02-29T06:57:42.273Z,28.4
2024-02-29T07:03:21.347Z,27.6
2024-02-29T07:09:00.555Z,26.8
2024-02-29T07:14:40.345Z,26.1
2024-02-29T07:20:19.424Z,29.5
2024-02-29T07:25:43.129Z,32.6
2024-02-29T07:31:22.489Z,30.8
2024-02-29T07:36:46.571Z,29.8
2024-02-29T07:42:10.721Z,28.9
2024-02-29T07:47:52.694Z,28.1
2024-02-29T07:53:32.129Z,27.3
2024-02-29T07:59:15.941Z,26.5
2024-02-29T08:04:56.439Z,28.3
2024-02-29T08:10:36.113Z,32.3
2024-02-29T08:16:18.582Z,31.2
2024-02-29T08:21:57.832Z,30.2
2024-02-29T08:27:20.930Z,29.3
2024-02-29T08:33:02.806Z,28.4
2024-02-29T08:38:41.059Z,27.6
2024-02-29T08:44:19.554Z,26.8
2024-02-29T08:49:58.654Z,26.1
2024-02-29T08:55:38.034Z,30.7
2024-02-29T09:01:16.819Z,31.9
2024-02-29T09:06:59.022Z,30.4
2024-02-29T09:12:37.484Z,29.6
2024-02-29T09:18:31.993Z,28.7
2024-02-29T09:29:42.231Z,27
2024-02-29T09:35:25.319Z,26.3
2024-02-29T09:41:31.842Z,25.6
2024-02-29T09:47:22.741Z,24.9
2024-02-29T09:53:11.768Z,24.3
2024-02-29T09:58:38.834Z,23.8
2024-02-29T10:04:20.871Z,30.1
2024-02-29T10:10:03.177Z,31.3
2024-02-29T10:15:42.452Z,30.3
2024-02-29T10:21:24.068Z,29.3
2024-02-29T10:27:02.076Z,28.4
2024-02-29T10:32:43.548Z,27.6
2024-02-29T10:38:24.698Z,26.8
2024-02-29T10:44:03.453Z,26.1
2024-02-29T10:49:27.751Z,25.4
2024-02-29T10:55:07.363Z,24.8
2024-02-29T11:00:46.845Z,24.2
2024-02-29T11:06:26.017Z,23.8
2024-02-29T11:12:05.435Z,31.5
2024-02-29T11:17:13.303Z,31.1
2024-02-29T11:23:10.243Z,30.1
2024-02-29T11:28:51.124Z,29.1
2024-02-29T11:34:30.551Z,28.2
2024-02-29T11:40:23.086Z,27.4
2024-02-29T11:45:46.701Z,26.6
2024-02-29T11:51:28.547Z,25.8
2024-02-29T11:57:23.886Z,25.1
2024-02-29T12:03:03.984Z,24.5
2024-02-29T12:08:43.479Z,23.9
2024-02-29T12:14:26.799Z,23.5
2024-02-29T12:19:51.019Z,23.1
2024-02-29T12:25:33.764Z,22.8
2024-02-29T12:31:14.137Z,22.4
2024-02-29T12:36:54.810Z,22.2
2024-02-29T12:42:35.217Z,21.9
2024-02-29T12:48:15.519Z,21.8
2024-02-29T12:53:55.800Z,21.6
2024-02-29T12:59:40.349Z,21.4
2024-02-29T13:05:23.548Z,21.3
2024-02-29T13:10:49.160Z,21.2
2024-02-29T13:21:44.313Z,21
2024-02-29T13:27:28.345Z,20.9
2024-02-29T13:32:55.074Z,20.8
2024-02-29T13:38:34.990Z,20.8
2024-02-29T13:44:14.208Z,20.7
2024-02-29T13:49:55.601Z,20.6
2024-02-29T13:55:19.608Z,20.6
2024-02-29T14:00:43.855Z,20.6
2024-02-29T14:06:23.784Z,20.5
2024-02-29T14:12:03.530Z,20.4
2024-02-29T14:17:43.453Z,20.4
2024-02-29T14:23:24.754Z,20.4
2024-02-29T14:28:48.703Z,20.4
2024-02-29T14:34:29.729Z,20.3
2024-02-29T14:40:08.628Z,20.3
2024-02-29T14:45:48.392Z,20.3
2024-02-29T14:51:28.114Z,20.2
2024-02-29T14:57:09.047Z,20.2
2024-02-29T15:02:33.897Z,20.2
2024-02-29T15:08:14.816Z,20.1
2024-02-29T15:13:58.431Z,20.1
2024-02-29T15:19:39.020Z,20.1
2024-02-29T15:25:02.245Z,20.1
2024-02-29T15:30:25.872Z,20.1
2024-02-29T15:36:08.509Z,20.1
2024-02-29T15:41:47.536Z,20.1
2024-02-29T15:47:27.036Z,20
2024-02-29T15:53:09.881Z,20
2024-02-29T15:58:35.796Z,19.9
2024-02-29T16:04:15.734Z,20
2024-02-29T16:09:56.778Z,20
2024-02-29T16:15:24.163Z,20
2024-02-29T16:20:47.880Z,20
2024-02-29T16:26:27.881Z,20
2024-02-29T16:32:06.593Z,20
2024-02-29T16:37:48.151Z,20
2024-02-29T16:43:27.742Z,20
2024-02-29T16:49:10.221Z,20
2024-02-29T16:54:49.333Z,20.1
2024-02-29T17:00:29.149Z,20.1
2024-02-29T17:06:12.460Z,20.1
2024-02-29T17:11:54.422Z,20
2024-02-29T17:17:20.749Z,20
2024-02-29T17:23:00.019Z,20.1
2024-02-29T17:28:38.886Z,20
2024-02-29T17:34:18.191Z,20
2024-02-29T17:39:44.496Z,20
2024-02-29T17:45:23.167Z,20
2024-02-29T17:51:04.379Z,20
2024-02-29T17:56:44.185Z,20
2024-02-29T18:02:24.288Z,20
2024-02-29T18:08:12.290Z,20
2024-02-29T18:13:51.693Z,19.3
2024-02-29T18:19:31.043Z,29.3
2024-02-29T18:25:10.771Z,32.3
2024-02-29T18:30:50.246Z,31.2
2024-02-29T18:36:29.739Z,30.2
2024-02-29T18:42:09.269Z,29.3
2024-02-29T18:48:03.113Z,28.6
2024-02-29T18:53:44.347Z,27.8
2024-02-29T18:59:24.219Z,27.1
2024-02-29T19:05:05.989Z,26.3
2024-02-29T19:10:48.549Z,25.6
2024-02-29T19:15:56.748Z,25
2024-02-29T19:21:20.249Z,24.5
2024-02-29T19:27:03.368Z,29.3
2024-02-29T19:32:42.023Z,32.4
2024-02-29T19:38:24.895Z,30.9
2024-02-29T19:44:04.097Z,30
2024-02-29T19:49:28.597Z,29.2
2024-02-29T19:54:52.240Z,28.4
2024-02-29T20:00:31.967Z,27.8
2024-02-29T20:06:12.189Z,26.9
2024-02-29T20:11:36.294Z,26.2
2024-02-29T20:16:45.160Z,25.6
2024-02-29T20:22:10.330Z,25
2024-02-29T20:27:18.748Z,24.5
2024-02-29T20:32:45.558Z,27
2024-02-29T20:38:25.901Z,31.6
2024-02-29T20:43:50.723Z,31.3
2024-02-29T20:48:59.390Z,30.4
2024-02-29T20:54:23.231Z,29.6
2024-02-29T20:59:31.668Z,28.7
2024-02-29T21:04:40.064Z,27.9
2024-02-29T21:10:04.726Z,27.2
2024-02-29T21:15:28.597Z,26.4
2024-02-29T21:20:52.531Z,25.8
2024-02-29T21:26:16.221Z,25.2
2024-02-29T21:31:42.854Z,24.6
2024-02-29T21:37:06.267Z,24.1
2024-02-29T21:42:24.518Z,28.6
2024-02-29T21:48:03.921Z,32
2024-02-29T21:53:42.078Z,31.1
2024-02-29T21:59:21.403Z,30.1
2024-02-29T22:04:47.180Z,29.2
2024-02-29T22:10:27.222Z,28.4
2024-02-29T22:16:07.945Z,27.5
2024-02-29T22:21:50.584Z,26
2024-02-29T22:27:14.132Z,31.4
2024-02-29T22:32:53.580Z,32.1
2024-02-29T22:38:32.847Z,30.9
2024-02-29T22:44:23.700Z,29.9
2024-02-29T22:50:03.246Z,28.9
2024-02-29T22:55:42.489Z,28.1
2024-02-29T23:01:27.289Z,27.3
2024-02-29T23:07:07.349Z,26.4
2024-02-29T23:12:31.785Z,27.8
2024-02-29T23:17:55.243Z,31.9
2024-02-29T23:23:35.417Z,31.7
2024-02-29T23:29:19.710Z,30.6
2024-02-29T23:35:01.840Z,29.6
2024-02-29T23:40:25.779Z,28.8
2024-02-29T23:46:04.811Z,27.9
2024-02-29T23:51:43.099Z,27.1
2024-02-29T23:57:22.883Z,26.3
